createdAt,value
2018-06-14T00:00:17.223Z,992.31
2018-06-14T00:01:17.167Z,992.30
2018-06-14T00:02:17.084Z,992.34
2018-06-14T00:03:17.021Z,992.27
2018-06-14T00:04:16.954Z,992.25
2018-06-14T00:05:16.890Z,992.28
2018-06-14T00:06:16.822Z,992.29
2018-06-14T00:07:16.768Z,992.37
2018-06-14T00:08:16.683Z,992.35
2018-06-14T00:09:16.622Z,992.34
2018-06-14T00:10:16.564Z,992.33
2018-06-14T00:11:16.490Z,992.28
2018-06-14T00:12:16.417Z,992.31
2018-06-14T00:13:16.356Z,992.17
2018-06-14T00:14:16.311Z,992.25
2018-06-14T00:15:16.249Z,992.25
2018-06-14T00:16:16.167Z,992.24
2018-06-14T00:17:16.095Z,992.24
2018-06-14T00:18:16.042Z,992.19
2018-06-14T00:19:15.981Z,992.31
2018-06-14T00:20:15.900Z,992.20
2018-06-14T00:21:15.840Z,992.30
2018-06-14T00:22:15.767Z,992.24
2018-06-14T00:23:15.705Z,992.30
2018-06-14T00:24:15.642Z,992.23
2018-06-14T00:25:15.569Z,992.23
2018-06-14T00:26:15.520Z,992.19
2018-06-14T00:27:15.453Z,992.19
2018-06-14T00:28:15.371Z,992.21
2018-06-14T00:29:15.301Z,992.25
2018-06-14T00:30:15.245Z,992.24
2018-06-14T00:31:15.175Z,992.19
2018-06-14T00:32:15.121Z,992.22
2018-06-14T00:33:15.077Z,992.15
2018-06-14T00:34:14.985Z,992.18
2018-06-14T00:35:14.929Z,992.05
2018-06-14T00:36:14.862Z,992.12
2018-06-14T00:37:14.778Z,992.13
2018-06-14T00:38:14.723Z,992.07
2018-06-14T00:39:14.655Z,992.07
2018-06-14T00:40:14.652Z,992.09
2018-06-14T00:41:14.526Z,992.00
2018-06-14T00:42:14.458Z,992.06
2018-06-14T00:43:14.386Z,991.98
2018-06-14T00:44:14.335Z,991.93
2018-06-14T00:45:14.253Z,991.96
2018-06-14T00:46:14.194Z,991.85
2018-06-14T00:47:14.241Z,991.95
2018-06-14T00:48:14.099Z,991.86
2018-06-14T00:49:14.677Z,992.00
2018-06-14T00:50:13.920Z,991.81
2018-06-14T00:51:13.869Z,991.85
2018-06-14T00:52:13.796Z,991.80
2018-06-14T00:53:13.741Z,991.87
2018-06-14T00:54:13.655Z,991.78
2018-06-14T00:55:13.605Z,991.85
2018-06-14T00:56:13.532Z,991.83
2018-06-14T00:57:13.455Z,991.74
2018-06-14T00:58:13.405Z,991.78
2018-06-14T00:59:13.331Z,991.70
2018-06-14T01:00:13.260Z,991.72
2018-06-14T01:01:13.196Z,991.71
2018-06-14T01:02:13.135Z,991.72
2018-06-14T01:03:13.065Z,991.77
2018-06-14T01:04:12.997Z,991.74
2018-06-14T01:05:12.929Z,991.70
2018-06-14T01:06:12.878Z,991.70
2018-06-14T01:07:12.802Z,991.66
2018-06-14T01:08:12.747Z,991.69
2018-06-14T01:09:12.673Z,991.61
2018-06-14T01:10:12.601Z,991.68
2018-06-14T01:11:12.575Z,991.61
2018-06-14T01:12:12.468Z,991.68
2018-06-14T01:13:12.429Z,991.58
2018-06-14T01:14:12.336Z,991.71
2018-06-14T01:15:12.284Z,991.66
2018-06-14T01:16:12.224Z,991.68
2018-06-14T01:17:12.143Z,991.71
2018-06-14T01:18:12.063Z,991.71
2018-06-14T01:19:12.013Z,991.61
2018-06-14T01:20:11.940Z,991.63
2018-06-14T01:21:11.882Z,991.63
2018-06-14T01:22:11.816Z,991.57
2018-06-14T01:23:11.736Z,991.50
2018-06-14T01:24:11.669Z,991.54
2018-06-14T01:25:11.604Z,991.55
2018-06-14T01:26:11.539Z,991.64
2018-06-14T01:27:11.485Z,991.49
2018-06-14T01:28:11.419Z,991.46
2018-06-14T01:29:11.357Z,991.56
2018-06-14T01:30:11.271Z,991.53
2018-06-14T01:31:11.219Z,991.57
2018-06-14T01:32:11.149Z,991.63
2018-06-14T01:33:11.082Z,991.59
2018-06-14T01:34:11.009Z,991.61
2018-06-14T01:35:10.995Z,991.60
2018-06-14T01:36:10.888Z,991.63
2018-06-14T01:37:10.822Z,991.58
2018-06-14T01:38:10.756Z,991.64
2018-06-14T01:39:10.694Z,991.67
2018-06-14T01:40:10.614Z,991.61
2018-06-14T01:41:10.550Z,991.54
2018-06-14T01:42:10.484Z,991.56
2018-06-14T01:43:10.419Z,991.61
2018-06-14T01:44:10.360Z,991.59
2018-06-14T01:45:10.283Z,991.60
2018-06-14T01:46:10.221Z,991.60
2018-06-14T01:47:10.158Z,991.63
2018-06-14T01:48:10.085Z,991.62
2018-06-14T01:49:10.028Z,991.61
2018-06-14T01:50:09.969Z,991.51
2018-06-14T01:51:09.894Z,991.64
2018-06-14T01:52:09.823Z,991.56
2018-06-14T01:53:09.745Z,991.65
2018-06-14T01:54:09.703Z,991.62
2018-06-14T01:55:09.621Z,991.56
2018-06-14T01:56:09.564Z,991.56
2018-06-14T01:57:09.490Z,991.67
2018-06-14T01:58:09.427Z,991.58
2018-06-14T01:59:09.362Z,991.57
2018-06-14T02:00:09.288Z,991.55
2018-06-14T02:01:09.229Z,991.68
2018-06-14T02:02:09.161Z,991.56
2018-06-14T02:03:09.100Z,991.60
2018-06-14T02:04:09.047Z,991.53
2018-06-14T02:05:08.968Z,991.72
2018-06-14T02:06:08.912Z,991.59
2018-06-14T02:07:08.831Z,991.52
2018-06-14T02:08:08.765Z,991.58
2018-06-14T02:09:08.698Z,991.52
2018-06-14T02:10:08.630Z,991.56
2018-06-14T02:11:08.573Z,991.58
2018-06-14T02:12:08.485Z,991.39
2018-06-14T02:13:08.417Z,991.46
2018-06-14T02:14:08.369Z,991.53
2018-06-14T02:15:08.299Z,991.51
2018-06-14T02:16:08.226Z,991.49
2018-06-14T02:17:08.168Z,991.44
2018-06-14T02:18:08.097Z,991.47
2018-06-14T02:19:08.039Z,991.48
2018-06-14T02:20:07.962Z,991.45
2018-06-14T02:21:07.889Z,991.42
2018-06-14T02:22:07.835Z,991.38
2018-06-14T02:23:07.772Z,991.30
2018-06-14T02:24:07.690Z,991.39
2018-06-14T02:25:07.641Z,991.37
2018-06-14T02:26:07.559Z,991.31
2018-06-14T02:27:07.494Z,991.40
2018-06-14T02:28:07.439Z,991.37
2018-06-14T02:29:07.388Z,991.42
2018-06-14T02:30:07.305Z,991.41
2018-06-14T02:31:07.239Z,991.35
2018-06-14T02:32:07.155Z,991.43
2018-06-14T02:33:07.105Z,991.34
2018-06-14T02:34:07.038Z,991.44
2018-06-14T02:35:06.973Z,991.39
2018-06-14T02:36:06.901Z,991.45
2018-06-14T02:37:06.832Z,991.41
2018-06-14T02:38:06.775Z,991.31
2018-06-14T02:39:06.712Z,991.38
2018-06-14T02:40:06.636Z,991.42
2018-06-14T02:41:06.563Z,991.30
2018-06-14T02:42:06.513Z,991.37
2018-06-14T02:43:06.436Z,991.35
2018-06-14T02:44:06.371Z,991.37
2018-06-14T02:45:06.317Z,991.35
2018-06-14T02:46:06.233Z,991.38
2018-06-14T02:47:06.163Z,991.31
2018-06-14T02:48:06.111Z,991.38
2018-06-14T02:49:06.035Z,991.28
2018-06-14T02:50:05.965Z,991.33
2018-06-14T02:51:05.914Z,991.41
2018-06-14T02:52:05.848Z,991.37
2018-06-14T02:53:05.782Z,991.36
2018-06-14T02:54:05.707Z,991.39
2018-06-14T02:55:05.645Z,991.25
2018-06-14T02:56:05.567Z,991.39
2018-06-14T02:57:05.520Z,991.28
2018-06-14T02:58:05.439Z,991.41
2018-06-14T02:59:05.378Z,991.44
2018-06-14T03:00:05.313Z,991.40
2018-06-14T03:01:05.253Z,991.32
2018-06-14T03:02:05.173Z,991.34
2018-06-14T03:03:05.114Z,991.24
2018-06-14T03:04:05.038Z,991.27
2018-06-14T03:05:04.974Z,991.24
2018-06-14T03:06:04.909Z,991.31
2018-06-14T03:07:04.855Z,991.30
2018-06-14T03:08:04.771Z,991.27
2018-06-14T03:09:04.714Z,991.29
2018-06-14T03:10:04.657Z,991.25
2018-06-14T03:11:04.581Z,991.33
2018-06-14T03:12:04.509Z,991.36
2018-06-14T03:13:04.445Z,991.34
2018-06-14T03:14:04.367Z,991.41
2018-06-14T03:15:04.318Z,991.26
2018-06-14T03:16:04.252Z,991.30
2018-06-14T03:17:04.173Z,991.35
2018-06-14T03:18:04.111Z,991.33
2018-06-14T03:19:04.061Z,991.29
2018-06-14T03:20:03.983Z,991.31
2018-06-14T03:21:03.916Z,991.35
2018-06-14T03:22:03.851Z,991.24
2018-06-14T03:23:03.776Z,991.28
2018-06-14T03:24:03.707Z,991.30
2018-06-14T03:25:03.647Z,991.30
2018-06-14T03:26:03.583Z,991.30
2018-06-14T03:27:03.509Z,991.30
2018-06-14T03:28:03.434Z,991.31
2018-06-14T03:29:03.384Z,991.33
2018-06-14T03:30:03.323Z,991.31
2018-06-14T03:31:03.249Z,991.24
2018-06-14T03:32:03.183Z,991.27
2018-06-14T03:33:03.114Z,991.30
2018-06-14T03:34:03.036Z,991.28
2018-06-14T03:35:02.970Z,991.30
2018-06-14T03:36:02.915Z,991.26
2018-06-14T03:37:02.851Z,991.28
2018-06-14T03:38:02.787Z,991.29
2018-06-14T03:39:02.733Z,991.28
2018-06-14T03:40:02.653Z,991.30
2018-06-14T03:41:02.569Z,991.35
2018-06-14T03:42:02.511Z,991.27
2018-06-14T03:43:02.458Z,991.38
2018-06-14T03:44:02.380Z,991.28
2018-06-14T03:45:02.318Z,991.24
2018-06-14T03:46:02.253Z,991.27
2018-06-14T03:47:02.194Z,991.26
2018-06-14T03:48:02.116Z,991.27
2018-06-14T03:49:02.058Z,991.31
2018-06-14T03:50:01.985Z,991.27
2018-06-14T03:51:01.909Z,991.22
2018-06-14T03:52:01.947Z,991.20
2018-06-14T03:53:01.785Z,991.24
2018-06-14T03:54:01.716Z,991.19
2018-06-14T03:55:01.646Z,991.20
2018-06-14T03:56:01.586Z,991.16
2018-06-14T03:57:01.509Z,991.16
2018-06-14T03:58:01.445Z,991.18
2018-06-14T03:59:01.383Z,991.15
2018-06-14T04:00:01.312Z,991.16
2018-06-14T04:01:01.241Z,991.09
2018-06-14T04:02:01.191Z,991.16
2018-06-14T04:03:01.104Z,991.10
2018-06-14T04:04:01.037Z,991.13
2018-06-14T04:05:00.968Z,991.14
2018-06-14T04:06:00.914Z,991.10
2018-06-14T04:07:00.846Z,991.05
2018-06-14T04:08:00.785Z,991.11
2018-06-14T04:09:00.724Z,991.11
2018-06-14T04:10:00.694Z,991.05
2018-06-14T04:11:00.588Z,991.20
2018-06-14T04:12:00.513Z,991.05
2018-06-14T04:13:00.443Z,991.08
2018-06-14T04:14:00.364Z,991.10
2018-06-14T04:15:00.302Z,991.16
2018-06-14T04:16:00.244Z,991.11
2018-06-14T04:17:00.170Z,991.17
2018-06-14T04:18:00.131Z,991.17
2018-06-14T04:19:00.040Z,991.10
2018-06-14T04:19:59.975Z,991.15
2018-06-14T04:20:59.915Z,991.06
2018-06-14T04:21:59.845Z,991.14
2018-06-14T04:22:59.769Z,991.15
2018-06-14T04:23:59.710Z,991.16
2018-06-14T04:24:59.638Z,991.19
2018-06-14T04:25:59.579Z,991.23
2018-06-14T04:26:59.500Z,991.25
2018-06-14T04:27:59.441Z,991.25
2018-06-14T04:28:59.375Z,991.22
2018-06-14T04:29:59.302Z,991.19
2018-06-14T04:30:59.243Z,991.23
2018-06-14T04:31:59.171Z,991.16
2018-06-14T04:32:59.106Z,991.22
2018-06-14T04:33:59.075Z,991.13
2018-06-14T04:34:58.967Z,991.17
2018-06-14T04:35:58.908Z,991.17
2018-06-14T04:36:58.842Z,991.17
2018-06-14T04:37:58.783Z,991.14
2018-06-14T04:38:58.705Z,991.16
2018-06-14T04:39:58.651Z,991.19
2018-06-14T04:40:58.580Z,991.14
2018-06-14T04:41:58.510Z,991.21
2018-06-14T04:42:58.457Z,991.16
2018-06-14T04:43:58.371Z,991.13
2018-06-14T04:44:58.308Z,991.07
2018-06-14T04:45:58.230Z,991.19
2018-06-14T04:46:58.173Z,991.15
2018-06-14T04:47:58.109Z,991.17
2018-06-14T04:48:58.029Z,991.22
2018-06-14T04:49:57.972Z,991.23
2018-06-14T04:50:57.903Z,991.22
2018-06-14T04:51:57.847Z,991.15
2018-06-14T04:52:57.776Z,991.18
2018-06-14T04:53:57.689Z,991.06
2018-06-14T04:54:57.625Z,991.11
2018-06-14T04:55:57.569Z,991.08
2018-06-14T04:56:57.501Z,991.09
2018-06-14T04:57:57.440Z,991.16
2018-06-14T04:58:57.358Z,991.11
2018-06-14T04:59:57.302Z,991.18
2018-06-14T05:00:57.240Z,991.15
2018-06-14T05:01:57.169Z,991.16
2018-06-14T05:02:57.101Z,991.12
2018-06-14T05:03:57.040Z,991.16
2018-06-14T05:04:56.974Z,991.17
2018-06-14T05:05:56.897Z,991.09
2018-06-14T05:06:56.836Z,991.13
2018-06-14T05:07:56.765Z,991.01
2018-06-14T05:08:56.703Z,991.11
2018-06-14T05:09:56.624Z,991.14
2018-06-14T05:10:56.557Z,991.14
2018-06-14T05:11:56.494Z,991.18
2018-06-14T05:12:56.427Z,991.06
2018-06-14T05:13:56.373Z,991.15
2018-06-14T05:14:56.288Z,991.11
2018-06-14T05:15:56.224Z,991.04
2018-06-14T05:16:56.151Z,991.08
2018-06-14T05:17:56.100Z,991.06
2018-06-14T05:18:56.036Z,991.13
2018-06-14T05:19:55.959Z,991.13
2018-06-14T05:20:55.912Z,991.16
2018-06-14T05:21:55.824Z,991.10
2018-06-14T05:22:55.770Z,991.04
2018-06-14T05:23:55.687Z,991.15
2018-06-14T05:24:55.625Z,991.10
2018-06-14T05:25:55.562Z,991.09
2018-06-14T05:26:55.497Z,991.10
2018-06-14T05:27:55.417Z,991.08
2018-06-14T05:28:55.397Z,991.14
2018-06-14T05:29:55.296Z,991.14
2018-06-14T05:30:55.227Z,991.26
2018-06-14T05:31:55.162Z,991.11
2018-06-14T05:32:55.100Z,991.16
2018-06-14T05:33:55.032Z,991.13
2018-06-14T05:34:54.967Z,991.19
2018-06-14T05:35:54.903Z,991.10
2018-06-14T05:36:54.836Z,991.12
2018-06-14T05:37:54.760Z,991.19
2018-06-14T05:38:54.738Z,991.17
2018-06-14T05:39:54.624Z,991.13
2018-06-14T05:40:54.562Z,991.18
2018-06-14T05:41:54.503Z,991.13
2018-06-14T05:42:54.436Z,991.17
2018-06-14T05:43:54.363Z,991.15
2018-06-14T05:44:54.304Z,991.21
2018-06-14T05:45:54.237Z,991.18
2018-06-14T05:46:54.203Z,991.29
2018-06-14T05:47:54.092Z,991.20
2018-06-14T05:48:54.025Z,991.18
2018-06-14T05:49:53.965Z,991.26
2018-06-14T05:50:53.937Z,991.22
2018-06-14T05:51:53.832Z,991.23
2018-06-14T05:52:53.768Z,991.19
2018-06-14T05:53:53.704Z,991.23
2018-06-14T05:54:53.639Z,991.25
2018-06-14T05:55:53.572Z,991.15
2018-06-14T05:56:53.500Z,991.27
2018-06-14T05:57:53.439Z,991.22
2018-06-14T05:58:53.371Z,991.30
2018-06-14T05:59:53.317Z,991.27
2018-06-14T06:00:53.235Z,991.25
2018-06-14T06:01:53.179Z,991.28
2018-06-14T06:02:53.132Z,991.19
2018-06-14T06:03:53.044Z,991.30
2018-06-14T06:04:52.987Z,991.22
2018-06-14T06:05:52.906Z,991.25
2018-06-14T06:06:52.853Z,991.25
2018-06-14T06:07:52.781Z,991.27
2018-06-14T06:08:52.716Z,991.28
2018-06-14T06:09:52.658Z,991.23
2018-06-14T06:10:52.598Z,991.25
2018-06-14T06:11:52.544Z,991.25
2018-06-14T06:12:52.485Z,991.24
2018-06-14T06:13:52.386Z,991.21
2018-06-14T06:14:52.333Z,991.24
2018-06-14T06:15:52.271Z,991.21
2018-06-14T06:16:52.187Z,991.30
2018-06-14T06:17:52.131Z,991.33
2018-06-14T06:18:52.071Z,991.28
2018-06-14T06:19:52.051Z,991.26
2018-06-14T06:20:51.933Z,991.22
2018-06-14T06:21:51.876Z,991.34
2018-06-14T06:22:51.813Z,991.29
2018-06-14T06:23:51.735Z,991.27
2018-06-14T06:24:51.698Z,991.26
2018-06-14T06:25:51.609Z,991.29
2018-06-14T06:26:51.549Z,991.27
2018-06-14T06:27:51.476Z,991.25
2018-06-14T06:28:51.411Z,991.27
2018-06-14T06:29:51.362Z,991.40
2018-06-14T06:30:51.288Z,991.34
2018-06-14T06:31:51.229Z,991.38
2018-06-14T06:32:51.147Z,991.50
2018-06-14T06:33:51.098Z,991.36
2018-06-14T06:34:51.030Z,991.33
2018-06-14T06:35:50.950Z,991.29
2018-06-14T06:36:50.902Z,991.36
2018-06-14T06:37:50.831Z,991.30
2018-06-14T06:38:50.781Z,991.33
2018-06-14T06:39:50.694Z,991.26
2018-06-14T06:40:50.646Z,991.28
2018-06-14T06:41:50.575Z,991.36
2018-06-14T06:42:50.514Z,991.30
2018-06-14T06:43:50.439Z,991.30
2018-06-14T06:44:50.401Z,991.27
2018-06-14T06:45:50.303Z,991.27
2018-06-14T06:46:50.263Z,991.33
2018-06-14T06:47:50.179Z,991.28
2018-06-14T06:48:50.119Z,991.31
2018-06-14T06:49:50.052Z,991.33
2018-06-14T06:50:49.994Z,991.27
2018-06-14T06:51:49.920Z,991.34
2018-06-14T06:52:49.888Z,991.25
2018-06-14T06:53:49.796Z,991.43
2018-06-14T06:54:49.739Z,991.40
2018-06-14T06:55:49.663Z,991.37
2018-06-14T06:56:49.601Z,991.46
2018-06-14T06:57:49.531Z,991.39
2018-06-14T06:58:49.521Z,991.43
2018-06-14T06:59:49.402Z,991.42
2018-06-14T07:00:49.331Z,991.37
2018-06-14T07:01:49.281Z,991.36
2018-06-14T07:02:49.231Z,991.34
2018-06-14T07:03:49.156Z,991.43
2018-06-14T07:04:49.080Z,991.32
2018-06-14T07:05:49.022Z,991.47
2018-06-14T07:06:48.962Z,991.27
2018-06-14T07:07:48.896Z,991.31
2018-06-14T07:08:48.826Z,991.44
2018-06-14T07:09:48.765Z,991.26
2018-06-14T07:10:48.703Z,991.38
2018-06-14T07:11:48.630Z,991.37
2018-06-14T07:12:48.580Z,991.40
2018-06-14T07:13:48.507Z,991.47
2018-06-14T07:14:48.463Z,991.34
2018-06-14T07:15:48.377Z,991.34
2018-06-14T07:16:48.305Z,991.42
2018-06-14T07:17:48.267Z,991.37
2018-06-14T07:18:48.184Z,991.52
2018-06-14T07:19:48.124Z,991.41
2018-06-14T07:20:48.050Z,991.44
2018-06-14T07:21:48.066Z,991.34
2018-06-14T07:22:47.923Z,991.38
2018-06-14T07:23:47.850Z,991.47
2018-06-14T07:24:47.788Z,991.44
2018-06-14T07:25:47.735Z,991.58
2018-06-14T07:26:47.695Z,991.45
2018-06-14T07:27:47.605Z,991.42
2018-06-14T07:28:47.529Z,991.30
2018-06-14T07:29:47.469Z,991.44
2018-06-14T07:30:47.395Z,991.50
2018-06-14T07:31:47.342Z,991.44
2018-06-14T07:32:47.265Z,991.40
2018-06-14T07:33:47.218Z,991.46
2018-06-14T07:34:47.144Z,991.43
2018-06-14T07:35:47.079Z,991.50
2018-06-14T07:36:47.013Z,991.48
2018-06-14T07:37:46.954Z,991.52
2018-06-14T07:38:46.895Z,991.48
2018-06-14T07:39:46.813Z,991.49
2018-06-14T07:40:46.766Z,991.42
2018-06-14T07:41:46.687Z,991.37
2018-06-14T07:42:46.635Z,991.44
2018-06-14T07:43:46.564Z,991.46
2018-06-14T07:44:46.500Z,991.46
2018-06-14T07:45:46.446Z,991.37
2018-06-14T07:46:46.376Z,991.48
2018-06-14T07:47:46.336Z,991.44
2018-06-14T07:48:46.233Z,991.48
2018-06-14T07:49:46.183Z,991.46
2018-06-14T07:50:46.117Z,991.44
2018-06-14T07:51:46.056Z,991.54
2018-06-14T07:52:45.990Z,991.45
2018-06-14T07:53:45.923Z,991.49
2018-06-14T07:54:45.856Z,991.39
2018-06-14T07:55:45.795Z,991.48
2018-06-14T07:56:45.733Z,991.49
2018-06-14T07:57:45.658Z,991.43
2018-06-14T07:58:45.595Z,991.51
2018-06-14T07:59:45.546Z,991.48
2018-06-14T08:00:45.484Z,991.47
2018-06-14T08:01:45.412Z,991.47
2018-06-14T08:02:45.353Z,991.52
2018-06-14T08:03:45.286Z,991.53
2018-06-14T08:04:45.220Z,991.55
2018-06-14T08:05:45.143Z,991.49
2018-06-14T08:06:45.098Z,991.52
2018-06-14T08:07:45.035Z,991.52
2018-06-14T08:08:44.965Z,991.53
2018-06-14T08:09:44.906Z,991.44
2018-06-14T08:10:44.840Z,991.45
2018-06-14T08:11:44.779Z,991.37
2018-06-14T08:12:44.777Z,991.35
2018-06-14T08:13:44.651Z,991.39
2018-06-14T08:14:44.587Z,991.35
2018-06-14T08:15:44.506Z,991.41
2018-06-14T08:16:44.499Z,991.43
2018-06-14T08:17:44.385Z,991.47
2018-06-14T08:18:44.331Z,991.43
2018-06-14T08:19:44.299Z,991.50
2018-06-14T08:20:44.207Z,991.45
2018-06-14T08:21:44.143Z,991.53
2018-06-14T08:22:44.064Z,991.44
2018-06-14T08:23:44.008Z,991.32
2018-06-14T08:24:43.949Z,991.36
2018-06-14T08:25:43.876Z,991.43
2018-06-14T08:26:43.824Z,991.54
2018-06-14T08:27:43.770Z,991.50
2018-06-14T08:28:43.686Z,991.39
2018-06-14T08:29:43.635Z,991.47
2018-06-14T08:30:43.573Z,991.42
2018-06-14T08:31:43.521Z,991.46
2018-06-14T08:32:43.439Z,991.49
2018-06-14T08:33:43.386Z,991.48
2018-06-14T08:34:43.320Z,991.42
2018-06-14T08:35:43.260Z,991.36
2018-06-14T08:36:43.179Z,991.48
2018-06-14T08:37:43.119Z,991.36
2018-06-14T08:38:43.063Z,991.41
2018-06-14T08:39:42.988Z,991.42
2018-06-14T08:40:42.938Z,991.43
2018-06-14T08:41:42.869Z,991.46
2018-06-14T08:42:42.808Z,991.40
2018-06-14T08:43:42.752Z,991.51
2018-06-14T08:44:42.710Z,991.48
2018-06-14T08:45:42.627Z,991.30
2018-06-14T08:46:42.541Z,991.47
2018-06-14T08:47:42.498Z,991.48
2018-06-14T08:48:42.417Z,991.47
2018-06-14T08:49:42.367Z,991.51
2018-06-14T08:50:42.298Z,991.51
2018-06-14T08:51:42.236Z,991.52
2018-06-14T08:52:42.181Z,991.47
2018-06-14T08:53:42.109Z,991.52
2018-06-14T08:54:42.042Z,991.44
2018-06-14T08:55:41.987Z,991.50
2018-06-14T08:56:41.919Z,991.52
2018-06-14T08:57:41.881Z,991.47
2018-06-14T08:58:41.804Z,991.45
2018-06-14T08:59:41.724Z,991.47
2018-06-14T09:00:41.661Z,991.44
2018-06-14T09:01:41.601Z,991.50
2018-06-14T09:02:41.556Z,991.51
2018-06-14T09:03:41.478Z,991.52
2018-06-14T09:04:41.413Z,991.54
2018-06-14T09:05:41.347Z,991.48
2018-06-14T09:06:41.289Z,991.59
2018-06-14T09:07:41.217Z,991.58
2018-06-14T09:08:41.154Z,991.55
2018-06-14T09:09:41.107Z,991.47
2018-06-14T09:10:41.048Z,991.50
2018-06-14T09:11:40.966Z,991.46
2018-06-14T09:12:40.909Z,991.53
2018-06-14T09:13:40.854Z,991.48
2018-06-14T09:14:40.792Z,991.51
2018-06-14T09:15:40.732Z,991.48
2018-06-14T09:16:40.659Z,991.46
2018-06-14T09:17:40.597Z,991.47
2018-06-14T09:18:40.576Z,991.49
2018-06-14T09:19:40.477Z,991.45
2018-06-14T09:20:40.414Z,991.48
2018-06-14T09:21:40.359Z,991.45
2018-06-14T09:22:40.295Z,991.59
2018-06-14T09:23:40.210Z,991.49
2018-06-14T09:24:40.166Z,991.53
2018-06-14T09:25:40.099Z,991.55
2018-06-14T09:26:40.035Z,991.63
2018-06-14T09:27:39.990Z,991.57
2018-06-14T09:28:39.905Z,991.55
2018-06-14T09:29:39.846Z,991.59
2018-06-14T09:30:39.783Z,991.49
2018-06-14T09:31:39.722Z,991.50
2018-06-14T09:32:39.666Z,991.63
2018-06-14T09:33:39.608Z,991.61
2018-06-14T09:34:39.590Z,991.54
2018-06-14T09:35:39.477Z,991.56
2018-06-14T09:36:39.408Z,991.57
2018-06-14T09:37:39.345Z,991.60
2018-06-14T09:38:39.289Z,991.57
2018-06-14T09:39:39.226Z,991.59
2018-06-14T09:40:39.154Z,991.57
2018-06-14T09:41:39.084Z,991.60
2018-06-14T09:42:39.028Z,991.69
2018-06-14T09:43:38.967Z,991.62
2018-06-14T09:44:38.907Z,991.58
2018-06-14T09:45:38.856Z,991.69
2018-06-14T09:46:38.794Z,991.64
2018-06-14T09:47:38.713Z,991.66
2018-06-14T09:48:38.708Z,991.69
2018-06-14T09:49:38.597Z,991.60
2018-06-14T09:50:38.561Z,991.70
2018-06-14T09:51:38.472Z,991.54
2018-06-14T09:52:38.422Z,991.62
2018-06-14T09:53:38.351Z,991.55
2018-06-14T09:54:38.281Z,991.62
2018-06-14T09:55:38.231Z,991.54
2018-06-14T09:56:38.165Z,991.58
2018-06-14T09:57:38.097Z,991.61
2018-06-14T09:58:38.033Z,991.62
2018-06-14T09:59:37.979Z,991.57
2018-06-14T10:00:37.918Z,991.60
2018-06-14T10:01:37.847Z,991.56
2018-06-14T10:02:37.792Z,991.71
2018-06-14T10:03:37.729Z,991.52
2018-06-14T10:04:37.663Z,991.54
2018-06-14T10:05:37.598Z,991.55
2018-06-14T10:06:37.552Z,991.68
2018-06-14T10:07:37.484Z,991.54
2018-06-14T10:08:37.420Z,991.57
2018-06-14T10:09:37.357Z,991.53
2018-06-14T10:10:37.287Z,991.62
2018-06-14T10:11:37.228Z,991.65
2018-06-14T10:12:37.167Z,991.66
2018-06-14T10:13:37.110Z,991.60
2018-06-14T10:14:37.047Z,991.61
2018-06-14T10:15:36.978Z,991.59
2018-06-14T10:16:36.922Z,991.49
2018-06-14T10:17:36.846Z,991.56
2018-06-14T10:18:36.803Z,991.53
2018-06-14T10:19:36.736Z,991.58
2018-06-14T10:20:36.673Z,991.59
2018-06-14T10:21:36.646Z,991.64
2018-06-14T10:22:36.557Z,991.52
2018-06-14T10:23:36.480Z,991.52
2018-06-14T10:24:36.439Z,991.52
2018-06-14T10:25:36.359Z,991.51
2018-06-14T10:26:36.305Z,991.59
2018-06-14T10:27:36.237Z,991.55
2018-06-14T10:28:36.175Z,991.52
2018-06-14T10:29:36.110Z,991.47
2018-06-14T10:30:36.040Z,991.52
2018-06-14T10:31:35.997Z,991.55
2018-06-14T10:32:35.926Z,991.59
2018-06-14T10:33:35.858Z,991.48
2018-06-14T10:34:35.854Z,991.63
2018-06-14T10:35:35.734Z,991.59
2018-06-14T10:36:35.685Z,991.56
2018-06-14T10:37:35.615Z,991.54
2018-06-14T10:38:35.556Z,991.48
2018-06-14T10:39:35.497Z,991.43
2018-06-14T10:40:35.436Z,991.47
2018-06-14T10:41:35.382Z,991.46
2018-06-14T10:42:35.314Z,991.55
2018-06-14T10:43:35.270Z,991.48
2018-06-14T10:44:35.178Z,991.50
2018-06-14T10:45:35.133Z,991.49
2018-06-14T10:46:35.055Z,991.37
2018-06-14T10:47:35.005Z,991.45
2018-06-14T10:48:34.946Z,991.42
2018-06-14T10:49:34.872Z,991.36
2018-06-14T10:50:34.811Z,991.47
2018-06-14T10:51:34.753Z,991.49
2018-06-14T10:52:34.697Z,991.45
2018-06-14T10:53:34.627Z,991.42
2018-06-14T10:54:34.561Z,991.45
2018-06-14T10:55:34.498Z,991.39
2018-06-14T10:56:34.445Z,991.44
2018-06-14T10:57:34.385Z,991.45
2018-06-14T10:58:34.324Z,991.47
2018-06-14T10:59:34.246Z,991.42
2018-06-14T11:00:34.201Z,991.47
2018-06-14T11:01:34.135Z,991.43
2018-06-14T11:02:34.065Z,991.44
2018-06-14T11:03:34.014Z,991.43
2018-06-14T11:04:33.951Z,991.44
2018-06-14T11:05:33.879Z,991.46
2018-06-14T11:06:33.829Z,991.49
2018-06-14T11:07:33.761Z,991.41
2018-06-14T11:08:33.689Z,991.46
2018-06-14T11:09:33.640Z,991.50
2018-06-14T11:10:33.564Z,991.47
2018-06-14T11:11:33.501Z,991.39
2018-06-14T11:12:33.437Z,991.45
2018-06-14T11:13:33.384Z,991.39
2018-06-14T11:14:33.317Z,991.28
2018-06-14T11:15:33.261Z,991.31
2018-06-14T11:16:33.202Z,991.18
2018-06-14T11:17:33.129Z,991.32
2018-06-14T11:18:33.062Z,991.31
2018-06-14T11:19:33.016Z,991.32
2018-06-14T11:20:32.954Z,991.32
2018-06-14T11:21:32.967Z,991.29
2018-06-14T11:22:32.816Z,991.32
2018-06-14T11:23:32.753Z,991.33
2018-06-14T11:24:32.717Z,991.25
2018-06-14T11:25:32.634Z,991.27
2018-06-14T11:26:32.583Z,991.28
2018-06-14T11:27:32.535Z,991.36
2018-06-14T11:28:32.456Z,991.27
2018-06-14T11:29:32.390Z,991.23
2018-06-14T11:30:32.332Z,991.26
2018-06-14T11:31:32.261Z,991.34
2018-06-14T11:32:32.208Z,991.24
2018-06-14T11:33:32.144Z,991.35
2018-06-14T11:34:32.073Z,991.30
2018-06-14T11:35:32.018Z,991.30
2018-06-14T11:36:31.953Z,991.30
2018-06-14T11:37:31.883Z,991.27
2018-06-14T11:38:31.821Z,991.28
2018-06-14T11:39:31.830Z,991.25
2018-06-14T11:40:31.708Z,991.30
2018-06-14T11:41:31.649Z,991.25
2018-06-14T11:42:31.581Z,991.23
2018-06-14T11:43:31.523Z,991.33
2018-06-14T11:44:31.456Z,991.35
2018-06-14T11:45:31.387Z,991.34
2018-06-14T11:46:31.338Z,991.27
2018-06-14T11:47:31.279Z,991.25
2018-06-14T11:48:31.201Z,991.31
2018-06-14T11:49:31.145Z,991.28
2018-06-14T11:50:31.085Z,991.19
2018-06-14T11:51:31.016Z,991.13
2018-06-14T11:52:30.972Z,991.21
2018-06-14T11:53:30.894Z,991.27
2018-06-14T11:54:30.844Z,991.24
2018-06-14T11:55:30.781Z,991.31
2018-06-14T11:56:30.715Z,991.29
2018-06-14T11:57:30.643Z,991.26
2018-06-14T11:58:30.597Z,991.30
2018-06-14T11:59:30.536Z,991.25
2018-06-14T12:00:30.468Z,991.22
2018-06-14T12:01:30.406Z,991.27
2018-06-14T12:02:30.336Z,991.23
2018-06-14T12:03:30.278Z,991.25
2018-06-14T12:04:30.214Z,991.23
2018-06-14T12:05:30.168Z,991.12
2018-06-14T12:06:30.089Z,991.19
2018-06-14T12:07:30.040Z,991.17
2018-06-14T12:08:29.972Z,991.20
2018-06-14T12:09:29.916Z,991.20
2018-06-14T12:10:29.853Z,991.12
2018-06-14T12:11:29.791Z,991.19
2018-06-14T12:12:29.724Z,991.15
2018-06-14T12:13:29.657Z,991.18
2018-06-14T12:14:29.597Z,991.15
2018-06-14T12:15:29.528Z,991.15
2018-06-14T12:16:29.475Z,991.17
2018-06-14T12:17:29.405Z,991.20
2018-06-14T12:18:29.345Z,991.17
2018-06-14T12:19:29.290Z,991.15
2018-06-14T12:20:29.274Z,991.19
2018-06-14T12:21:29.199Z,991.18
2018-06-14T12:22:29.102Z,991.15
2018-06-14T12:23:29.029Z,991.15
2018-06-14T12:24:28.966Z,991.16
2018-06-14T12:25:28.917Z,991.13
2018-06-14T12:26:28.856Z,991.19
2018-06-14T12:27:28.836Z,991.09